createdAt,value
2023-01-20T06:41:14.723Z,1.10
2023-01-20T06:46:17.873Z,0.90
2023-01-20T06:51:21.553Z,0.80
2023-01-20T06:56:24.888Z,0.90
2023-01-20T07:01:30.623Z,0.90
2023-01-20T07:06:39.013Z,1.00
2023-01-20T07:11:41.944Z,0.90
2023-01-20T07:22:29.352Z,1.00
2023-01-20T07:27:32.264Z,1.00
2023-01-20T07:32:34.955Z,1.10
2023-01-20T07:37:37.591Z,1.20
2023-01-20T07:42:40.728Z,1.20
2023-01-20T07:47:43.429Z,1.20
2023-01-20T07:52:46.196Z,1.20
2023-01-20T07:57:48.921Z,1.10
2023-01-20T08:02:51.726Z,1.10
2023-01-20T08:07:54.457Z,1.10
2023-01-20T08:12:58.188Z,1.20
2023-01-20T08:18:01.054Z,1.20
2023-01-20T08:23:03.737Z,1.10
2023-01-20T08:28:06.981Z,1.20
2023-01-20T08:33:09.677Z,1.20
2023-01-20T08:38:12.388Z,1.30
2023-01-20T08:43:16.434Z,1.30
2023-01-20T08:48:20.241Z,1.40
2023-01-20T08:53:22.953Z,1.60
2023-01-20T08:58:26.263Z,1.70
2023-01-20T09:03:30.669Z,1.70
2023-01-20T09:08:36.124Z,1.70
2023-01-20T09:13:39.215Z,1.70
2023-01-20T09:18:42.361Z,1.90
2023-01-20T09:23:48.160Z,1.80
2023-01-20T09:28:51.089Z,1.80
2023-01-20T09:33:53.845Z,1.70
2023-01-20T09:39:14.945Z,1.60
2023-01-20T09:44:23.416Z,1.60
2023-01-20T09:49:58.384Z,1.60
2023-01-20T09:55:07.445Z,1.60
2023-01-20T10:00:19.226Z,1.70
2023-01-20T10:05:33.244Z,1.70
2023-01-20T10:10:43.407Z,1.70
2023-01-20T10:15:56.965Z,1.70
2023-01-20T10:21:13.970Z,1.70
2023-01-20T10:26:31.288Z,1.70
2023-01-20T10:31:43.599Z,1.80
2023-01-20T10:36:56.481Z,1.70
2023-01-20T10:42:13.149Z,1.70
2023-01-20T10:47:40.649Z,1.60
2023-01-20T10:53:06.981Z,1.60
2023-01-20T10:58:34.172Z,1.60
2023-01-20T11:03:41.166Z,1.70
2023-01-20T11:08:44.532Z,1.80
2023-01-20T11:13:47.659Z,1.50
2023-01-20T11:19:02.507Z,1.70
2023-01-20T11:24:30.904Z,1.80
2023-01-20T11:29:43.550Z,1.70
2023-01-20T11:34:50.435Z,1.50
2023-01-20T11:39:55.960Z,1.60
2023-01-20T11:45:20.738Z,1.60
2023-01-20T11:50:38.998Z,1.60
2023-01-20T11:56:06.518Z,1.70
2023-01-20T12:01:29.183Z,1.70
2023-01-20T12:06:36.911Z,1.70
2023-01-20T12:12:06.876Z,1.70
2023-01-20T12:17:12.554Z,1.80
2023-01-20T12:22:23.853Z,1.70
2023-01-20T12:27:28.521Z,1.90
2023-01-20T12:32:33.485Z,1.70
2023-01-20T12:37:49.400Z,1.70
2023-01-20T12:43:05.014Z,1.60
2023-01-20T12:48:37.070Z,1.70
2023-01-20T12:53:45.783Z,1.80
2023-01-20T12:59:15.191Z,1.80
2023-01-20T13:04:41.359Z,1.70
2023-01-20T13:09:53.078Z,1.70
2023-01-20T13:15:17.507Z,1.60
2023-01-20T13:20:26.456Z,1.60
2023-01-20T13:25:29.895Z,1.60
2023-01-20T13:30:44.553Z,1.60
2023-01-20T13:35:49.931Z,2.00
2023-01-20T13:40:55.425Z,1.80
2023-01-20T13:46:04.203Z,1.60
2023-01-20T13:51:16.067Z,1.60
2023-01-20T13:56:38.209Z,1.70
2023-01-20T14:01:40.976Z,1.70
2023-01-20T14:06:52.144Z,1.70
2023-01-20T14:11:57.477Z,1.50
2023-01-20T14:17:02.552Z,1.50
2023-01-20T14:22:17.870Z,1.50
2023-01-20T14:27:23.750Z,1.40
2023-01-20T14:32:29.327Z,1.40
2023-01-20T14:37:35.979Z,1.40
2023-01-20T14:42:40.154Z,1.40
2023-01-20T14:47:43.032Z,1.50
2023-01-20T14:52:49.075Z,1.50
2023-01-20T14:57:51.796Z,1.50
2023-01-20T15:03:10.375Z,1.50
2023-01-20T15:08:30.176Z,1.40
2023-01-20T15:13:32.985Z,1.50
2023-01-20T15:18:35.919Z,1.50
2023-01-20T15:23:39.639Z,1.50
2023-01-20T15:28:44.637Z,1.50
2023-01-20T15:33:47.706Z,1.50
2023-01-20T15:38:51.059Z,1.50
2023-01-20T15:43:56.548Z,1.40
2023-01-20T15:48:59.366Z,1.50
2023-01-20T15:54:02.206Z,1.50
2023-01-20T15:59:13.482Z,1.50
2023-01-20T16:04:16.258Z,1.50
2023-01-20T16:09:26.424Z,1.50
2023-01-20T16:14:29.211Z,1.50
2023-01-20T16:19:31.985Z,1.50
2023-01-20T16:24:35.395Z,1.50
2023-01-20T16:29:38.133Z,1.50
2023-01-20T16:34:40.978Z,1.60
2023-01-20T16:39:43.823Z,1.50
2023-01-20T16:44:46.627Z,1.50
2023-01-20T16:49:49.307Z,1.40
2023-01-20T16:54:52.008Z,1.40
2023-01-20T16:59:54.717Z,1.40
2023-01-20T17:04:57.606Z,1.40
2023-01-20T17:10:00.582Z,1.40
2023-01-20T17:15:03.474Z,1.40
2023-01-20T17:20:10.427Z,1.40
2023-01-20T17:25:16.182Z,1.40
2023-01-20T17:30:20.456Z,1.40
2023-01-20T17:35:23.308Z,1.40
2023-01-20T17:40:26.119Z,1.40
2023-01-20T17:45:31.004Z,1.40
2023-01-20T17:50:33.856Z,1.40
2023-01-20T17:55:36.754Z,1.50
2023-01-20T18:00:40.166Z,1.40
2023-01-20T18:05:42.926Z,1.40
2023-01-20T18:10:45.806Z,1.40
2023-01-20T18:15:48.518Z,1.40
2023-01-20T18:20:52.146Z,1.40
2023-01-20T18:25:56.775Z,1.50
2023-01-20T18:31:01.357Z,1.50
2023-01-20T18:36:04.665Z,1.50
2023-01-20T18:41:07.483Z,1.50
2023-01-20T18:46:10.724Z,1.50
2023-01-20T18:51:20.758Z,1.50
2023-01-20T18:56:27.006Z,1.40
2023-01-20T19:01:33.964Z,1.40
2023-01-20T19:06:40.115Z,1.30
2023-01-20T19:11:43.184Z,1.20
2023-01-20T19:16:49.530Z,1.30
2023-01-20T19:21:52.984Z,1.20
2023-01-20T19:26:58.281Z,1.30
2023-01-20T19:32:01.151Z,1.20
2023-01-20T19:37:04.091Z,1.30
2023-01-20T19:42:06.856Z,1.30
2023-01-20T19:47:09.712Z,1.30
2023-01-20T19:52:12.670Z,1.30
2023-01-20T19:57:15.504Z,1.20
2023-01-20T20:02:18.269Z,1.20
2023-01-20T20:07:21.295Z,1.20
2023-01-20T20:12:24.032Z,1.20
2023-01-20T20:17:27.260Z,1.20
2023-01-20T20:22:30.234Z,1.20
2023-01-20T20:27:33.283Z,1.20
2023-01-20T20:32:36.190Z,1.20
2023-01-20T20:37:39.187Z,1.20
2023-01-20T20:42:42.027Z,1.20
2023-01-20T20:47:44.792Z,1.20
2023-01-20T20:52:47.583Z,1.20
2023-01-20T20:57:50.352Z,1.30
2023-01-20T21:02:53.423Z,1.30
2023-01-20T21:07:56.281Z,1.30
2023-01-20T21:12:59.019Z,1.30
2023-01-20T21:18:01.904Z,1.30
2023-01-20T21:23:04.823Z,1.30
2023-01-20T21:28:07.606Z,1.20
2023-01-20T21:33:15.412Z,1.30
2023-01-20T21:38:18.293Z,1.20
2023-01-20T21:43:39.603Z,1.20
2023-01-20T21:49:01.397Z,1.20
2023-01-20T21:54:04.333Z,1.20
2023-01-20T21:59:07.990Z,1.20
2023-01-20T22:04:10.993Z,1.30
2023-01-20T22:09:13.960Z,1.30
2023-01-20T22:14:16.762Z,1.40
2023-01-20T22:19:19.564Z,1.30
2023-01-20T22:24:22.384Z,1.30
2023-01-20T22:29:25.239Z,1.30
2023-01-20T22:34:28.367Z,1.30
2023-01-20T22:39:31.107Z,1.30
2023-01-20T22:44:34.519Z,1.30
2023-01-20T22:49:37.316Z,1.30
2023-01-20T22:54:39.976Z,1.30
2023-01-20T22:59:42.879Z,1.40
2023-01-20T23:04:45.597Z,1.30
2023-01-20T23:09:48.320Z,1.30
2023-01-20T23:14:59.968Z,1.40
2023-01-20T23:20:02.725Z,1.40
2023-01-20T23:25:08.168Z,1.40
2023-01-20T23:30:14.618Z,1.40
2023-01-20T23:35:17.480Z,1.40
2023-01-20T23:40:20.453Z,1.40
2023-01-20T23:45:23.150Z,1.40
